Time;durP1;ratioP1;P1;durP2;ratioP2;P2;SDS_P1;SDS_P2;PMS_P1;PMS_P2;Temp;Humidity;BMP_temperature;BMP_pressure;BME280_temperature;BME280_humidity;BME280_pressure;Samples;Min_cycle;Max_cycle;Signal;HPM_P1;HPM_P2
2022/07/24 00:01:40;;;;;;;9.65;8.43;;;21.50;99.60;;;;;;5105522;28;20024;-74
2022/07/24 00:04:06;;;;;;;8.43;7.47;;;21.50;99.60;;;;;;5093376;28;20104;-72
2022/07/24 00:06:32;;;;;;;9.30;8.40;;;21.50;99.60;;;;;;5106148;28;20030;-72
2022/07/24 00:08:58;;;;;;;8.75;7.80;;;21.40;99.60;;;;;;5106487;28;20397;-72
2022/07/24 00:11:23;;;;;;;9.23;8.20;;;21.40;99.50;;;;;;5106060;28;20476;-72
2022/07/24 00:13:49;;;;;;;9.68;8.68;;;21.40;99.60;;;;;;5095843;28;20027;-73
2022/07/24 00:16:15;;;;;;;8.70;7.85;;;21.40;99.80;;;;;;5106084;28;20450;-72
2022/07/24 00:18:41;;;;;;;9.52;8.52;;;21.40;99.90;;;;;;5095185;28;20055;-72
2022/07/24 00:21:06;;;;;;;9.48;8.48;;;21.40;99.90;;;;;;5100305;28;20113;-72
2022/07/24 00:23:32;;;;;;;10.70;8.60;;;21.40;99.90;;;;;;5092764;28;20027;-72
2022/07/24 00:25:58;;;;;;;11.57;8.25;;;21.40;99.90;;;;;;5105788;28;20028;-74
2022/07/24 00:28:24;;;;;;;9.38;8.45;;;21.30;99.90;;;;;;5111446;28;20019;-72
2022/07/24 00:30:49;;;;;;;9.60;8.15;;;21.30;99.90;;;;;;5106520;28;20516;-72
2022/07/24 00:33:16;;;;;;;9.25;8.35;;;21.30;99.90;;;;;;5110936;27;20350;-73
2022/07/24 00:35:43;;;;;;;10.18;8.63;;;21.20;99.90;;;;;;5107158;28;20391;-73
2022/07/24 00:38:09;;;;;;;9.45;8.45;;;21.20;99.90;;;;;;5102470;28;20077;-73
2022/07/24 00:40:35;;;;;;;10.63;8.32;;;21.10;99.90;;;;;;5110814;28;20024;-73
2022/07/24 00:43:02;;;;;;;8.50;7.70;;;21.00;99.90;;;;;;5101620;28;20034;-73
2022/07/24 00:45:28;;;;;;;9.20;8.35;;;21.00;99.90;;;;;;5108648;28;20028;-73
2022/07/24 00:47:53;;;;;;;8.38;7.57;;;21.00;99.90;;;;;;5087522;28;20108;-73
2022/07/24 00:50:19;;;;;;;8.77;7.88;;;20.90;99.90;;;;;;5080983;28;20027;-73
2022/07/24 00:52:45;;;;;;;9.02;8.13;;;20.90;99.90;;;;;;5101360;28;20063;-74
2022/07/24 00:55:11;;;;;;;10.75;8.82;;;20.90;99.90;;;;;;5106523;28;20063;-73
2022/07/24 00:57:37;;;;;;;10.02;9.05;;;20.80;99.90;;;;;;5092594;28;20027;-75
2022/07/24 01:00:06;;;;;;;10.27;8.93;;;20.90;99.90;;;;;;5106704;28;20034;-73
2022/07/24 01:02:32;;;;;;;9.63;8.63;;;20.80;99.90;;;;;;5105280;28;20063;-72
2022/07/24 01:04:57;;;;;;;8.77;7.88;;;20.80;99.90;;;;;;5103736;28;20055;-73
2022/07/24 01:07:23;;;;;;;9.18;8.32;;;20.80;99.90;;;;;;5108881;28;20028;-73
2022/07/24 01:09:50;;;;;;;8.98;8.18;;;20.80;99.90;;;;;;5109335;28;20024;-73
2022/07/24 01:12:17;;;;;;;8.30;7.50;;;20.80;99.90;;;;;;5098121;28;20082;-74
2022/07/24 01:14:43;;;;;;;8.80;7.90;;;20.80;99.90;;;;;;5087709;28;20047;-75
2022/07/24 01:17:09;;;;;;;8.98;8.07;;;20.70;99.90;;;;;;5084593;28;20048;-73
2022/07/24 01:19:34;;;;;;;9.55;8.68;;;20.70;99.90;;;;;;5102564;28;20042;-72
2022/07/24 01:22:00;;;;;;;9.48;8.07;;;20.70;99.90;;;;;;5108083;28;20027;-73
2022/07/24 01:24:26;;;;;;;8.98;8.18;;;20.70;99.90;;;;;;5106454;28;20176;-73
2022/07/24 01:26:51;;;;;;;8.48;7.68;;;20.70;99.90;;;;;;5102711;28;20031;-73
2022/07/24 01:29:17;;;;;;;8.48;7.70;;;20.70;99.90;;;;;;5094418;28;20038;-73
2022/07/24 01:31:43;;;;;;;8.70;7.88;;;20.60;99.90;;;;;;5087506;28;20078;-75
2022/07/24 01:34:09;;;;;;;8.68;7.75;;;20.60;99.90;;;;;;5102901;28;20487;-78
2022/07/24 01:36:34;;;;;;;8.65;7.70;;;20.60;99.90;;;;;;5105802;28;20027;-77
2022/07/24 01:39:00;;;;;;;8.98;8.18;;;20.60;99.90;;;;;;5105341;28;20228;-76
2022/07/24 01:41:25;;;;;;;9.25;7.80;;;20.60;99.90;;;;;;5105733;28;20024;-76
2022/07/24 01:43:51;;;;;;;10.52;8.50;;;20.50;99.90;;;;;;5106028;28;20024;-76
2022/07/24 01:46:17;;;;;;;9.68;8.38;;;20.50;99.90;;;;;;5097382;28;20035;-75
2022/07/24 01:48:44;;;;;;;9.32;8.05;;;20.50;99.90;;;;;;5085100;28;20065;-75
2022/07/24 01:51:10;;;;;;;8.82;8.00;;;20.50;99.90;;;;;;5109151;28;20036;-76
2022/07/24 01:53:36;;;;;;;9.13;7.88;;;20.50;99.90;;;;;;5101097;28;20096;-76
2022/07/24 01:56:03;;;;;;;9.30;8.27;;;20.50;99.90;;;;;;5104779;28;20467;-78
2022/07/24 01:58:28;;;;;;;9.82;8.88;;;20.40;99.90;;;;;;5103745;28;20020;-77
2022/07/24 02:00:54;;;;;;;9.23;8.27;;;20.40;99.90;;;;;;5104617;28;20031;-77
2022/07/24 02:03:20;;;;;;;9.70;8.60;;;20.40;99.90;;;;;;5100508;28;20516;-77
2022/07/24 02:05:46;;;;;;;9.68;8.65;;;20.30;99.90;;;;;;5095611;28;20460;-80
2022/07/24 02:08:11;;;;;;;9.13;8.18;;;20.30;99.90;;;;;;5102936;28;20032;-76
2022/07/24 02:10:37;;;;;;;9.68;8.48;;;20.20;99.90;;;;;;5108538;28;20023;-77
2022/07/24 02:13:03;;;;;;;16.92;8.95;;;20.20;99.90;;;;;;5100748;28;20028;-77
2022/07/24 02:15:29;;;;;;;9.52;8.52;;;20.20;99.90;;;;;;5107785;28;20056;-77
2022/07/24 02:17:58;;;;;;;8.93;8.13;;;20.20;99.90;;;;;;5089056;28;20393;-76
2022/07/24 02:20:24;;;;;;;11.45;9.13;;;20.10;99.90;;;;;;5100067;28;20024;-75
2022/07/24 02:22:50;;;;;;;9.77;8.73;;;20.10;99.90;;;;;;5103478;28;20038;-77
2022/07/24 02:25:16;;;;;;;10.98;9.15;;;20.10;99.90;;;;;;5085926;28;20036;-76
2022/07/24 02:27:42;;;;;;;12.15;9.27;;;20.10;99.90;;;;;;5105050;28;20042;-76
2022/07/24 02:30:13;;;;;;;10.15;9.18;;;20.00;99.90;;;;;;5100570;28;20028;-77
2022/07/24 02:32:39;;;;;;;10.05;8.48;;;20.00;99.90;;;;;;5106119;28;20051;-77
2022/07/24 02:35:05;;;;;;;10.05;9.05;;;20.00;99.90;;;;;;5100139;28;20124;-77
2022/07/24 02:37:31;;;;;;;10.88;9.00;;;19.90;99.90;;;;;;5098420;28;20042;-78
2022/07/24 02:39:57;;;;;;;10.52;8.82;;;19.90;99.90;;;;;;5103528;28;20028;-76
2022/07/24 02:42:23;;;;;;;10.93;9.40;;;19.80;99.90;;;;;;5108678;28;20043;-76
2022/07/24 02:44:48;;;;;;;11.75;9.18;;;19.80;99.90;;;;;;5105390;28;20031;-74
2022/07/24 02:47:14;;;;;;;10.35;9.30;;;19.80;99.90;;;;;;5096690;28;20487;-75
2022/07/24 02:49:39;;;;;;;12.20;9.82;;;19.70;99.90;;;;;;5095069;28;20152;-75
2022/07/24 02:52:05;;;;;;;9.77;8.77;;;19.70;99.90;;;;;;5107453;28;20460;-75
2022/07/24 02:54:30;;;;;;;11.68;9.18;;;19.60;99.90;;;;;;5086768;28;20033;-75
2022/07/24 02:56:56;;;;;;;9.52;8.52;;;19.60;99.90;;;;;;5093291;28;20024;-76
2022/07/24 02:59:22;;;;;;;10.60;9.25;;;19.60;99.90;;;;;;5106478;28;20031;-73
2022/07/24 03:01:48;;;;;;;10.82;8.70;;;19.50;99.90;;;;;;5106736;28;20030;-74
2022/07/24 03:04:13;;;;;;;10.50;8.63;;;19.50;99.90;;;;;;5100339;28;20023;-74
2022/07/24 03:06:39;;;;;;;13.25;9.93;;;19.50;99.90;;;;;;5105324;28;20076;-74
2022/07/24 03:09:05;;;;;;;9.80;8.80;;;19.50;99.90;;;;;;5101900;28;20011;-74
2022/07/24 03:11:30;;;;;;;11.60;9.60;;;19.40;99.90;;;;;;5100508;28;20039;-74
2022/07/24 03:13:56;;;;;;;14.45;10.25;;;19.40;99.90;;;;;;5098565;28;20469;-73
2022/07/24 03:16:21;;;;;;;9.32;8.35;;;19.40;99.90;;;;;;5100496;28;20033;-74
2022/07/24 03:18:48;;;;;;;10.43;9.35;;;19.40;99.90;;;;;;5105187;28;20047;-74
2022/07/24 03:21:15;;;;;;;10.75;9.65;;;19.40;99.90;;;;;;5110796;28;20023;-76
2022/07/24 03:23:41;;;;;;;9.93;8.85;;;19.30;99.90;;;;;;5106339;28;20036;-75
2022/07/24 03:26:06;;;;;;;9.60;8.70;;;19.30;99.90;;;;;;5109303;28;20636;-75
2022/07/24 03:28:32;;;;;;;9.20;8.40;;;19.20;99.90;;;;;;5107274;28;20038;-76
2022/07/24 03:31:00;;;;;;;14.25;8.88;;;19.10;99.90;;;;;;5097028;28;20024;-76
2022/07/24 03:33:26;;;;;;;10.82;8.95;;;19.10;99.90;;;;;;5106036;28;20024;-76
2022/07/24 03:35:51;;;;;;;12.18;10.38;;;19.10;99.90;;;;;;5111924;28;20090;-76
2022/07/24 03:38:17;;;;;;;10.65;9.55;;;19.10;99.90;;;;;;5109369;28;20492;-76
2022/07/24 03:40:43;;;;;;;13.25;9.63;;;19.10;99.90;;;;;;5109002;28;20024;-76
2022/07/24 03:43:08;;;;;;;10.35;9.25;;;19.10;99.90;;;;;;5107522;28;20031;-76
2022/07/24 03:45:37;;;;;;;10.48;9.38;;;19.10;99.90;;;;;;5113726;28;20023;-76
2022/07/24 03:48:04;;;;;;;10.98;9.05;;;19.10;99.90;;;;;;5097188;28;20039;-76
2022/07/24 03:50:29;;;;;;;11.85;9.80;;;19.10;99.90;;;;;;5112511;28;20480;-77
2022/07/24 03:52:55;;;;;;;10.32;8.98;;;19.10;99.90;;;;;;5109493;28;20062;-76
2022/07/24 03:55:21;;;;;;;10.07;9.07;;;19.10;99.90;;;;;;5105954;28;20032;-76
2022/07/24 03:57:46;;;;;;;11.05;9.30;;;19.10;99.90;;;;;;5099335;28;20461;-75
2022/07/24 04:00:12;;;;;;;9.85;8.95;;;19.10;99.90;;;;;;5107848;28;20543;-77
2022/07/24 04:02:38;;;;;;;9.27;8.02;;;19.10;99.90;;;;;;5102435;28;20377;-76
2022/07/24 04:05:08;;;;;;;10.50;9.40;;;19.00;99.90;;;;;;5102343;28;20043;-77
2022/07/24 04:07:37;;;;;;;10.63;9.27;;;19.00;99.90;;;;;;5104364;28;20024;-76
2022/07/24 04:10:03;;;;;;;11.02;9.93;;;19.00;99.90;;;;;;5113547;28;20219;-76
2022/07/24 04:12:29;;;;;;;12.43;9.88;;;19.00;99.90;;;;;;5108763;28;20028;-76
2022/07/24 04:14:55;;;;;;;11.07;9.98;;;19.00;99.90;;;;;;5112608;28;20067;-76
2022/07/24 04:17:20;;;;;;;11.35;9.45;;;19.00;99.90;;;;;;5098209;28;20076;-76
2022/07/24 04:19:46;;;;;;;10.55;9.60;;;19.00;99.90;;;;;;5064554;28;20095;-75
2022/07/24 04:22:12;;;;;;;9.95;8.98;;;19.00;99.90;;;;;;5083275;28;20040;-75
2022/07/24 04:24:37;;;;;;;12.32;10.30;;;19.00;99.90;;;;;;5088368;28;20040;-76
2022/07/24 04:27:03;;;;;;;11.75;10.25;;;19.10;99.90;;;;;;5086460;28;20024;-76
2022/07/24 04:29:28;;;;;;;13.05;9.82;;;19.10;99.90;;;;;;5086143;28;20035;-76
2022/07/24 04:31:54;;;;;;;12.23;9.63;;;19.20;99.90;;;;;;5088746;28;20447;-76
2022/07/24 04:34:20;;;;;;;11.55;10.10;;;19.20;99.90;;;;;;5086470;28;20396;-76
2022/07/24 04:36:45;;;;;;;10.65;9.25;;;19.30;99.90;;;;;;5083730;28;20040;-76
2022/07/24 04:39:11;;;;;;;10.13;9.13;;;19.30;99.90;;;;;;5091499;28;20024;-77
2022/07/24 04:41:37;;;;;;;10.55;9.45;;;19.40;99.90;;;;;;5083836;28;20017;-77
2022/07/24 04:44:03;;;;;;;10.10;9.05;;;19.40;99.90;;;;;;5085526;28;20039;-75
2022/07/24 04:46:28;;;;;;;9.13;8.32;;;19.50;99.90;;;;;;5076211;28;20032;-76
2022/07/24 04:48:54;;;;;;;10.63;9.00;;;19.60;99.90;;;;;;5084558;28;20469;-75
2022/07/24 04:51:19;;;;;;;10.52;9.52;;;19.60;99.90;;;;;;5089753;28;20107;-76
2022/07/24 04:53:46;;;;;;;11.82;10.60;;;19.70;99.90;;;;;;5070344;28;20021;-76
2022/07/24 04:56:12;;;;;;;10.85;9.40;;;19.70;99.90;;;;;;5086166;28;20039;-76
2022/07/24 04:58:38;;;;;;;9.95;9.05;;;19.80;99.90;;;;;;5081001;28;20028;-76
2022/07/24 05:01:03;;;;;;;10.20;9.13;;;19.90;99.90;;;;;;5086891;28;20029;-76
2022/07/24 05:03:29;;;;;;;10.38;9.30;;;20.00;99.90;;;;;;5083939;28;20454;-77
2022/07/24 05:05:54;;;;;;;11.63;10.43;;;20.00;99.90;;;;;;5085794;28;20074;-76
2022/07/24 05:08:20;;;;;;;11.85;10.18;;;20.10;99.90;;;;;;5079366;28;20055;-77
2022/07/24 05:10:46;;;;;;;11.55;10.38;;;20.20;99.90;;;;;;5082360;28;20024;-77
2022/07/24 05:13:11;;;;;;;9.90;9.00;;;20.30;99.90;;;;;;5083643;28;20585;-76
2022/07/24 05:15:37;;;;;;;10.90;9.77;;;20.40;99.90;;;;;;5076712;28;20077;-76
2022/07/24 05:18:03;;;;;;;11.40;10.27;;;20.50;99.90;;;;;;5088678;28;20549;-76
2022/07/24 05:20:28;;;;;;;11.30;10.20;;;20.50;99.90;;;;;;5101794;28;20036;-77
2022/07/24 05:22:54;;;;;;;10.80;9.77;;;20.60;99.90;;;;;;5098150;28;20071;-76
2022/07/24 05:25:20;;;;;;;10.68;9.63;;;20.60;99.90;;;;;;5100633;28;21724;-77
2022/07/24 05:27:45;;;;;;;10.68;9.57;;;20.70;99.90;;;;;;5104970;28;20469;-76
2022/07/24 05:30:11;;;;;;;12.95;11.27;;;20.80;99.90;;;;;;5098668;28;20024;-76
2022/07/24 05:32:37;;;;;;;12.68;10.45;;;20.90;99.90;;;;;;5090438;28;20027;-77
2022/07/24 05:35:03;;;;;;;11.10;10.07;;;21.00;99.90;;;;;;5105483;28;20460;-77
2022/07/24 05:37:29;;;;;;;12.32;10.68;;;21.10;99.90;;;;;;5086835;28;20028;-77
2022/07/24 05:39:54;;;;;;;10.70;9.73;;;21.20;99.90;;;;;;5106823;28;20456;-75
2022/07/24 05:42:20;;;;;;;11.00;10.00;;;21.30;99.90;;;;;;5097135;28;20114;-76
2022/07/24 05:44:46;;;;;;;13.20;11.68;;;21.40;99.90;;;;;;5106126;28;20028;-76
2022/07/24 05:47:11;;;;;;;12.02;10.80;;;21.40;99.90;;;;;;5097634;28;20090;-75
2022/07/24 05:49:37;;;;;;;14.13;11.23;;;21.50;99.90;;;;;;5105775;28;20031;-75
2022/07/24 05:52:03;;;;;;;11.18;10.18;;;21.70;99.90;;;;;;5105787;28;20030;-78
2022/07/24 05:54:28;;;;;;;13.73;11.45;;;21.70;99.90;;;;;;5108124;28;20048;-76
2022/07/24 05:56:54;;;;;;;13.02;11.70;;;21.80;99.90;;;;;;5087661;28;20074;-76
2022/07/24 05:59:20;;;;;;;13.10;11.90;;;21.90;99.90;;;;;;5095287;28;20027;-77
2022/07/24 06:01:45;;;;;;;13.02;11.75;;;22.00;99.90;;;;;;5110104;28;20411;-77
2022/07/24 06:04:11;;;;;;;13.30;12.00;;;22.00;99.90;;;;;;5099839;28;20039;-76
2022/07/24 06:06:36;;;;;;;13.60;12.27;;;22.20;99.90;;;;;;5107782;28;20392;-76
2022/07/24 06:09:03;;;;;;;13.80;12.40;;;22.30;99.90;;;;;;5105047;28;20026;-76
2022/07/24 06:11:28;;;;;;;15.15;11.98;;;22.40;99.90;;;;;;5110829;28;20024;-76
2022/07/24 06:13:54;;;;;;;13.65;12.18;;;22.50;99.90;;;;;;5097201;28;20030;-76
2022/07/24 06:16:20;;;;;;;13.50;12.23;;;22.60;99.90;;;;;;5094147;28;22029;-76
2022/07/24 06:18:46;;;;;;;15.63;12.63;;;22.70;99.90;;;;;;5102756;28;20048;-76
2022/07/24 06:21:12;;;;;;;14.23;11.90;;;22.70;99.90;;;;;;5102010;28;20054;-76
2022/07/24 06:23:38;;;;;;;13.65;12.25;;;22.80;99.90;;;;;;5106227;28;20452;-76
2022/07/24 06:26:03;;;;;;;12.95;11.65;;;22.90;99.90;;;;;;5096108;28;20028;-75
2022/07/24 06:28:29;;;;;;;16.25;13.68;;;22.90;99.90;;;;;;5099573;28;20452;-76
2022/07/24 06:30:55;;;;;;;12.73;11.43;;;23.00;99.90;;;;;;5100818;28;20031;-76
2022/07/24 06:33:21;;;;;;;15.35;13.38;;;23.00;99.90;;;;;;5088993;28;20416;-76
2022/07/24 06:35:46;;;;;;;14.10;12.60;;;23.10;99.90;;;;;;5091058;28;20469;-76
2022/07/24 06:38:12;;;;;;;13.85;11.90;;;23.20;99.90;;;;;;5098803;28;20024;-76
2022/07/24 06:40:38;;;;;;;13.30;11.80;;;23.20;99.90;;;;;;5103185;28;20027;-76
2022/07/24 06:43:04;;;;;;;15.68;12.38;;;23.30;99.90;;;;;;5103933;28;20031;-76
2022/07/24 06:45:32;;;;;;;14.20;12.80;;;23.40;99.90;;;;;;5089480;28;20029;-76
2022/07/24 06:48:01;;;;;;;13.20;11.73;;;23.50;99.90;;;;;;5090806;28;20036;-76
2022/07/24 06:50:28;;;;;;;13.90;11.07;;;23.50;99.90;;;;;;5100352;28;20468;-76
2022/07/24 06:52:54;;;;;;;14.43;12.98;;;23.50;99.90;;;;;;5102526;28;20107;-76
2022/07/24 06:55:20;;;;;;;13.00;11.38;;;23.70;99.90;;;;;;5105776;28;20858;-76
2022/07/24 06:57:45;;;;;;;14.07;11.95;;;23.80;99.90;;;;;;5105143;28;20028;-77
2022/07/24 07:00:11;;;;;;;13.75;11.40;;;23.80;99.90;;;;;;5112014;28;20020;-75
2022/07/24 07:02:37;;;;;;;14.32;12.82;;;23.90;99.90;;;;;;5104939;28;20028;-77
2022/07/24 07:05:05;;;;;;;18.67;12.55;;;24.10;99.90;;;;;;5097734;28;20078;-76
2022/07/24 07:07:31;;;;;;;15.00;12.05;;;24.20;99.90;;;;;;5101844;28;20038;-71
2022/07/24 07:09:56;;;;;;;12.63;11.43;;;24.40;99.90;;;;;;5112879;28;20027;-73
2022/07/24 07:12:22;;;;;;;13.15;11.80;;;24.30;99.90;;;;;;5112378;28;20020;-71
2022/07/24 07:14:48;;;;;;;12.10;10.82;;;24.40;99.90;;;;;;5112486;28;20077;-73
2022/07/24 07:17:15;;;;;;;12.93;11.23;;;24.50;99.90;;;;;;5091539;28;20058;-72
2022/07/24 07:19:42;;;;;;;12.57;11.27;;;24.60;99.90;;;;;;5112667;28;20039;-72
2022/07/24 07:22:08;;;;;;;12.02;10.80;;;24.80;99.90;;;;;;5101864;28;20019;-72
2022/07/24 07:24:34;;;;;;;11.88;10.68;;;25.00;99.90;;;;;;5113239;28;20028;-73
2022/07/24 07:26:59;;;;;;;12.15;10.40;;;25.10;99.90;;;;;;5112171;28;20096;-73
2022/07/24 07:29:25;;;;;;;10.32;9.32;;;25.30;99.90;;;;;;5111617;28;20027;-72
2022/07/24 07:31:50;;;;;;;13.57;10.25;;;25.30;99.90;;;;;;5112551;28;20031;-72
2022/07/24 07:34:16;;;;;;;11.32;10.23;;;25.50;99.90;;;;;;5097305;28;20461;-75
2022/07/24 07:36:42;;;;;;;10.85;9.77;;;25.50;99.90;;;;;;5104040;28;20028;-73
2022/07/24 07:39:07;;;;;;;13.07;10.23;;;25.60;99.90;;;;;;5107237;28;20495;-76
2022/07/24 07:41:33;;;;;;;12.48;10.23;;;25.70;99.50;;;;;;5101650;28;20439;-73
2022/07/24 07:43:59;;;;;;;11.32;9.35;;;25.80;99.30;;;;;;5102025;28;20420;-74
2022/07/24 07:46:25;;;;;;;12.07;9.88;;;25.90;99.10;;;;;;5091694;28;20523;-73
2022/07/24 07:48:51;;;;;;;9.70;8.50;;;25.90;98.70;;;;;;5105643;28;20059;-73
2022/07/24 07:51:17;;;;;;;14.45;10.10;;;25.90;98.50;;;;;;5092170;28;20108;-73
2022/07/24 07:53:43;;;;;;;14.32;9.05;;;25.90;98.20;;;;;;5104068;28;20030;-72
2022/07/24 07:56:08;;;;;;;12.05;9.05;;;25.80;97.80;;;;;;5099959;28;20064;-70
2022/07/24 07:58:34;;;;;;;10.90;9.52;;;25.80;97.70;;;;;;5101133;28;20073;-74
2022/07/24 08:01:00;;;;;;;10.90;9.00;;;25.90;97.60;;;;;;5096992;28;20059;-76
2022/07/24 08:03:26;;;;;;;11.80;9.23;;;25.90;97.20;;;;;;5108348;28;20108;-75
2022/07/24 08:05:51;;;;;;;10.00;8.43;;;25.90;96.70;;;;;;5108540;28;20039;-73
2022/07/24 08:08:17;;;;;;;9.45;8.48;;;26.00;96.20;;;;;;5101149;28;20426;-70
2022/07/24 08:10:43;;;;;;;8.65;7.85;;;26.20;95.70;;;;;;5104221;28;20358;-70
2022/07/24 08:13:09;;;;;;;8.90;8.10;;;26.40;95.20;;;;;;5106472;28;20031;-70
2022/07/24 08:15:34;;;;;;;9.23;8.32;;;26.50;94.30;;;;;;5090809;28;20097;-70
2022/07/24 08:18:00;;;;;;;8.85;7.13;;;26.70;93.70;;;;;;5091673;28;20108;-70
2022/07/24 08:20:27;;;;;;;11.70;7.55;;;26.70;93.60;;;;;;5109116;28;20026;-72
2022/07/24 08:22:54;;;;;;;8.57;7.75;;;26.80;93.40;;;;;;5091877;28;20054;-70
2022/07/24 08:25:20;;;;;;;9.07;8.13;;;26.90;93.30;;;;;;5105296;28;20040;-72
2022/07/24 08:27:46;;;;;;;10.95;8.27;;;27.00;93.10;;;;;;5107636;28;20086;-72
2022/07/24 08:30:12;;;;;;;10.60;7.70;;;27.20;92.50;;;;;;5104262;28;20034;-72
2022/07/24 08:32:38;;;;;;;9.30;8.40;;;27.20;92.80;;;;;;5096513;28;20036;-72
2022/07/24 08:35:05;;;;;;;9.07;8.18;;;27.30;92.20;;;;;;5100217;28;20036;-73
2022/07/24 08:37:34;;;;;;;7.78;7.07;;;27.30;92.10;;;;;;5108926;28;20477;-71
2022/07/24 08:40:00;;;;;;;7.63;6.90;;;27.30;91.90;;;;;;5103744;28;20024;-72
2022/07/24 08:42:25;;;;;;;8.65;7.43;;;27.50;91.50;;;;;;5108303;28;20490;-72
2022/07/24 08:44:51;;;;;;;10.32;7.07;;;27.70;91.20;;;;;;5112747;28;20031;-71
2022/07/24 08:47:19;;;;;;;8.15;7.10;;;27.80;90.50;;;;;;5097413;28;20106;-72
2022/07/24 08:49:48;;;;;;;10.70;8.00;;;27.80;90.50;;;;;;5097596;28;20016;-72
2022/07/24 08:52:15;;;;;;;8.75;7.75;;;27.90;90.20;;;;;;5102575;28;20104;-72
2022/07/24 08:54:41;;;;;;;8.63;6.90;;;28.00;89.20;;;;;;5095474;28;20044;-71
2022/07/24 08:57:06;;;;;;;8.55;7.53;;;28.10;89.00;;;;;;5107331;28;20028;-74
2022/07/24 08:59:32;;;;;;;7.82;7.03;;;28.10;87.60;;;;;;5106059;28;20396;-71
2022/07/24 09:01:58;;;;;;;7.18;6.47;;;28.30;87.10;;;;;;5086472;28;20590;-72
2022/07/24 09:04:44;;;;;;;7.97;7.28;;;28.30;87.20;;;;;;5098591;28;20107;-72
2022/07/24 09:07:11;;;;;;;8.07;7.28;;;28.40;86.20;;;;;;5100769;28;20032;-72
2022/07/24 09:09:39;;;;;;;7.70;6.80;;;28.50;86.10;;;;;;5103667;28;20380;-72
2022/07/24 09:12:05;;;;;;;9.30;7.13;;;28.50;85.50;;;;;;5110393;28;20035;-74
2022/07/24 09:14:33;;;;;;;8.10;7.03;;;28.70;85.20;;;;;;5105517;28;20042;-72
2022/07/24 09:17:13;;;;;;;8.23;7.10;;;28.70;84.70;;;;;;5100622;28;20222;-72
2022/07/24 09:19:46;;;;;;;9.10;7.90;;;28.80;84.30;;;;;;5073433;28;20121;-72
2022/07/24 09:22:24;;;;;;;7.85;7.15;;;29.00;83.50;;;;;;5074235;28;20024;-72
2022/07/24 09:25:05;;;;;;;7.97;6.78;;;29.00;82.10;;;;;;5062056;28;20115;-72
2022/07/24 09:27:30;;;;;;;10.55;6.97;;;29.10;81.70;;;;;;5050228;28;20182;-71
2022/07/24 09:29:57;;;;;;;8.57;7.25;;;29.20;81.40;;;;;;5055347;28;20032;-71
2022/07/24 09:32:23;;;;;;;7.80;7.00;;;29.40;82.20;;;;;;5054172;28;20036;-72
2022/07/24 09:34:53;;;;;;;9.70;7.50;;;29.50;80.40;;;;;;5051663;28;20470;-72
2022/07/24 09:37:19;;;;;;;8.07;7.33;;;29.50;80.00;;;;;;5054797;28;20029;-72
2022/07/24 09:39:45;;;;;;;6.93;6.32;;;29.60;79.90;;;;;;5063660;28;20116;-72
2022/07/24 09:42:11;;;;;;;7.30;6.60;;;29.70;79.50;;;;;;5052844;28;20033;-72
2022/07/24 09:44:38;;;;;;;9.20;7.20;;;30.00;78.30;;;;;;5059073;28;20036;-72
2022/07/24 09:47:11;;;;;;;8.00;6.90;;;30.10;77.70;;;;;;5049046;28;20028;-73
2022/07/24 09:49:38;;;;;;;8.00;7.20;;;30.00;76.90;;;;;;5052315;28;20029;-72
2022/07/24 09:52:17;;;;;;;7.85;7.07;;;29.90;76.90;;;;;;5060390;28;20036;-72
2022/07/24 09:54:43;;;;;;;7.78;6.97;;;29.80;77.00;;;;;;5036491;28;20537;-72
2022/07/24 09:57:29;;;;;;;7.60;6.90;;;29.50;77.30;;;;;;5049979;28;20458;-74
2022/07/24 10:00:03;;;;;;;10.18;7.10;;;29.30;76.80;;;;;;5043885;28;20108;-72
2022/07/24 10:02:30;;;;;;;7.65;6.93;;;29.20;77.10;;;;;;5055066;28;20112;-72
2022/07/24 10:04:58;;;;;;;7.25;6.65;;;29.00;76.60;;;;;;5045654;28;20057;-72
2022/07/24 10:07:25;;;;;;;8.40;7.63;;;28.90;77.50;;;;;;5055659;28;20107;-71
2022/07/24 10:09:54;;;;;;;8.25;7.40;;;28.90;77.60;;;;;;5057275;28;20032;-72
2022/07/24 10:12:29;;;;;;;7.60;7.00;;;28.90;77.80;;;;;;5051561;28;20549;-72
2022/07/24 10:14:56;;;;;;;8.07;6.90;;;28.90;77.70;;;;;;5053951;28;20047;-72
2022/07/24 10:17:39;;;;;;;7.55;6.75;;;28.90;78.10;;;;;;5038462;28;20056;-72
2022/07/24 10:20:07;;;;;;;7.55;6.85;;;28.90;77.50;;;;;;5070308;28;20032;-72
2022/07/24 10:22:46;;;;;;;80.57;56.65;;;28.90;77.50;;;;;;5088160;28;20491;-72
2022/07/24 10:25:17;;;;;;;11.63;10.07;;;28.80;77.50;;;;;;5079905;28;20469;-73
2022/07/24 10:27:51;;;;;;;9.20;8.25;;;28.80;77.70;;;;;;5089820;28;20028;-72
2022/07/24 10:30:17;;;;;;;8.88;7.35;;;28.70;77.50;;;;;;5088769;28;20028;-73
2022/07/24 10:32:45;;;;;;;8.23;7.20;;;28.70;77.20;;;;;;5082755;28;20021;-71
2022/07/24 10:35:19;;;;;;;7.50;6.80;;;28.70;76.80;;;;;;5087354;28;20082;-74
2022/07/24 10:38:10;;;;;;;8.40;7.53;;;28.90;76.90;;;;;;5088334;28;20394;-72
2022/07/24 10:40:51;;;;;;;;;;;29.20;76.50;;;;;;5072079;28;20028;-73
2022/07/24 10:43:19;;;;;;;7.68;6.90;;;29.50;75.90;;;;;;5080165;28;19999;-86
2022/07/24 10:45:46;;;;;;;9.05;7.35;;;29.90;75.40;;;;;;5056645;28;20098;-71
2022/07/24 10:48:20;;;;;;;7.55;6.85;;;30.10;73.90;;;;;;5071601;28;20072;-79
2022/07/24 10:51:15;;;;;;;9.52;6.97;;;30.30;73.20;;;;;;5074059;28;20036;-71
2022/07/24 10:53:44;;;;;;;8.70;6.80;;;30.50;73.00;;;;;;5057501;28;20040;-72
2022/07/24 10:56:35;;;;;;;6.95;6.35;;;30.70;71.80;;;;;;5085348;28;20161;-73
2022/07/24 10:59:08;;;;;;;15.23;7.28;;;30.90;72.00;;;;;;5078278;28;20115;-72
2022/07/24 11:01:37;;;;;;;7.70;7.00;;;31.00;71.20;;;;;;5085503;28;20043;-73
2022/07/24 11:04:23;;;;;;;8.10;6.88;;;31.00;71.00;;;;;;5064109;28;20419;-71
2022/07/24 11:07:10;;;;;;;10.18;7.43;;;31.10;71.10;;;;;;5077772;28;20038;-71
2022/07/24 11:10:14;;;;;;;8.75;7.82;;;31.10;70.40;;;;;;5089365;28;20028;-71
2022/07/24 11:12:43;;;;;;;12.55;9.35;;;31.20;70.40;;;;;;4936321;28;20493;-71
2022/07/24 11:17:53;;;;;;;9.80;7.50;;;31.20;70.10;;;;;;4946959;28;20176;-72
2022/07/24 11:20:20;;;;;;;8.55;7.63;;;30.80;70.10;;;;;;4950009;28;20495;-72
2022/07/24 11:22:51;;;;;;;9.52;7.47;;;30.60;70.50;;;;;;4944802;28;20047;-72
2022/07/24 11:25:24;;;;;;;8.45;7.18;;;30.40;70.80;;;;;;4943116;28;20039;-73
2022/07/24 11:27:56;;;;;;;11.48;7.57;;;30.30;70.70;;;;;;4955379;28;20042;-72
2022/07/24 11:30:24;;;;;;;10.63;8.20;;;30.30;71.20;;;;;;4950431;28;20040;-72
2022/07/24 11:32:50;;;;;;;8.32;7.22;;;30.50;70.90;;;;;;4940682;28;20030;-73
2022/07/24 11:35:16;;;;;;;9.05;7.00;;;30.50;69.90;;;;;;4940987;28;20036;-73
2022/07/24 11:37:43;;;;;;;9.48;7.25;;;30.50;70.00;;;;;;4952592;28;20034;-72
2022/07/24 11:40:14;;;;;;;11.85;9.50;;;30.60;70.00;;;;;;4942725;28;20126;-72
2022/07/24 11:42:40;;;;;;;8.77;7.97;;;30.70;69.60;;;;;;4973095;28;20032;-72
2022/07/24 11:45:06;;;;;;;10.30;9.15;;;30.70;69.60;;;;;;5068102;28;20171;-72
2022/07/24 11:47:31;;;;;;;8.95;6.88;;;30.90;69.30;;;;;;5074326;28;20520;-71
2022/07/24 11:50:00;;;;;;;9.35;8.38;;;31.00;69.10;;;;;;5077838;28;20108;-75
2022/07/24 11:52:31;;;;;;;8.60;7.45;;;31.10;68.90;;;;;;5070599;28;20082;-71
2022/07/24 11:55:00;;;;;;;7.50;6.85;;;31.00;68.50;;;;;;5080034;28;20060;-72
2022/07/24 11:57:31;;;;;;;8.70;6.97;;;30.80;69.10;;;;;;5066675;28;20060;-71
2022/07/24 11:59:57;;;;;;;9.25;7.22;;;30.70;68.30;;;;;;5071443;28;20028;-70
2022/07/24 12:02:23;;;;;;;7.35;6.70;;;30.70;69.20;;;;;;5070986;28;20501;-73
2022/07/24 12:04:50;;;;;;;7.93;7.18;;;30.60;68.70;;;;;;5080116;28;20550;-71
2022/07/24 12:07:17;;;;;;;8.48;6.68;;;30.40;68.70;;;;;;5070638;28;20123;-73
2022/07/24 12:09:48;;;;;;;7.68;7.03;;;30.30;69.20;;;;;;5075904;28;20028;-72
2022/07/24 12:12:22;;;;;;;8.57;7.78;;;30.30;68.60;;;;;;5065911;28;20465;-74
2022/07/24 12:14:50;;;;;;;7.47;6.78;;;30.40;68.60;;;;;;5068576;28;20028;-71
2022/07/24 12:17:15;;;;;;;7.40;6.70;;;30.70;68.70;;;;;;5076833;28;20033;-71
2022/07/24 12:19:50;;;;;;;8.13;6.57;;;30.90;67.70;;;;;;5045234;28;1070905;-69
2022/07/24 12:22:16;;;;;;;7.43;6.82;;;31.10;67.40;;;;;;5087318;28;20392;-71
2022/07/24 12:24:42;;;;;;;8.07;7.28;;;31.20;66.90;;;;;;5084355;28;20032;-69
2022/07/24 12:27:08;;;;;;;7.20;6.20;;;31.10;67.50;;;;;;5081741;28;20039;-69
2022/07/24 12:29:42;;;;;;;7.07;6.38;;;31.00;67.10;;;;;;5069118;28;20017;-70
2022/07/24 12:32:19;;;;;;;7.40;6.72;;;31.10;67.30;;;;;;5081065;28;21286;-69
2022/07/24 12:34:46;;;;;;;7.30;6.57;;;31.50;66.90;;;;;;5085884;28;20127;-70
2022/07/24 12:37:20;;;;;;;7.75;6.40;;;31.90;65.80;;;;;;5080793;28;20033;-70
2022/07/24 12:39:53;;;;;;;6.80;6.20;;;32.40;65.20;;;;;;5070764;28;20572;-70
2022/07/24 12:42:30;;;;;;;7.93;6.95;;;32.80;64.30;;;;;;5084736;28;20028;-70
2022/07/24 12:45:07;;;;;;;6.75;6.15;;;33.10;64.10;;;;;;5067171;28;20032;-70